Tune, Denmark
Current Conditions -  °F | °C
As of 1:20 PM on Wednesday 28 Jan 2015 (Local Time) from EKRK Reporting Station
Overcast Overcast  
Wind Chill: 29°   Ceiling: 1100
Heat Index: 39°   Visibility: 6mi
Dew Point: 37°   Wind: 21mph
Humidity: 93%   Direction: 200°SSW
Pressure: 29.44"   Gusts: NA
Location:  55.6°N, 12.18°E
Report Text: EKRK 281220Z AUTO 20018KT 9999NDV FEW009/// BKN011///OVC016/// 04/03 Q0997
Loading
Personal Weather Stations






























Interactive Weather Map New forecast layout! Learn more

10-Day Weather Forecast

Advertisements
Track Severe Weather on mobile